JBU2453 KDCA-KILM
Flight info
| Callsign | JBU2453 |
|---|---|
| Flight time | 0h 52m |
| Altitude | 32000 |
| Route | AMEEE1 SCOOB PAACK CHVIS BEULA |
| Aircraft | A320/M-SDE3FGHIRWY/LB1 |
Departure
| Time | 2026-04-21 02:45 |
|---|---|
| Airport | Ronald Reagan Washington National Airport (KDCA) |
Arrival
| Time | 2026-04-21 03:38 |
|---|---|
| Airport | Wilmington International Airport (KILM) |
| Time | Latitude | Longitude | Altitude | Speed | Heading |
|---|---|---|---|---|---|
| 2026-04-21 02:35 | 38.85456 | -77.04078 | 26 ft | 0 kts | 224° |
| 2026-04-21 02:37 | 38.85462 | -77.04070 | 37 ft | 2 kts | 224° |
| 2026-04-21 02:37 | 38.85473 | -77.04056 | 26 ft | 2 kts | 220° |
| 2026-04-21 02:38 | 38.85486 | -77.04048 | 26 ft | 0 kts | 158° |
| 2026-04-21 02:38 | 38.85487 | -77.04048 | 26 ft | 2 kts | 155° |
| 2026-04-21 02:39 | 38.85486 | -77.04043 | 26 ft | 7 kts | 133° |
| 2026-04-21 02:39 | 38.85406 | -77.03998 | 24 ft | 14 kts | 173° |
| 2026-04-21 02:40 | 38.85297 | -77.03988 | 23 ft | 17 kts | 178° |
| 2026-04-21 02:40 | 38.85170 | -77.03975 | 21 ft | 19 kts | 175° |
| 2026-04-21 02:40 | 38.85028 | -77.03964 | 21 ft | 22 kts | 174° |
| 2026-04-21 02:40 | 38.84882 | -77.03949 | 21 ft | 19 kts | 176° |
| 2026-04-21 02:41 | 38.84761 | -77.03932 | 24 ft | 15 kts | 159° |
| 2026-04-21 02:41 | 38.84685 | -77.03870 | 26 ft | 12 kts | 177° |
| 2026-04-21 02:41 | 38.84591 | -77.03860 | 24 ft | 16 kts | 175° |
| 2026-04-21 02:41 | 38.84448 | -77.03847 | 25 ft | 21 kts | 176° |
| 2026-04-21 02:42 | 38.84303 | -77.03831 | 27 ft | 20 kts | 175° |
| 2026-04-21 02:42 | 38.84223 | -77.03779 | 24 ft | 5 kts | 128° |
| 2026-04-21 02:42 | 38.84218 | -77.03770 | 24 ft | 0 kts | 122° |
| 2026-04-21 02:43 | 38.84222 | -77.03779 | 24 ft | 1 kts | 122° |
| 2026-04-21 02:44 | 38.84214 | -77.03763 | 24 ft | 9 kts | 124° |
| 2026-04-21 02:44 | 38.84222 | -77.03687 | 23 ft | 12 kts | 8° |
| 2026-04-21 02:44 | 38.84317 | -77.03695 | 22 ft | 19 kts | 356° |
| 2026-04-21 02:45 | 38.84688 | -77.03732 | 24 ft | 86 kts | 356° |
| 2026-04-21 02:45 | 38.85467 | -77.03808 | 29 ft | 135 kts | 354° |
| 2026-04-21 02:45 | 38.86480 | -77.03910 | 318 ft | 152 kts | 352° |
| 2026-04-21 02:45 | 38.87559 | -77.04098 | 875 ft | 157 kts | 336° |
| 2026-04-21 02:46 | 38.88456 | -77.04856 | 1510 ft | 161 kts | 311° |
| 2026-04-21 02:46 | 38.88968 | -77.05605 | 1814 ft | 175 kts | 308° |
| 2026-04-21 02:46 | 38.89760 | -77.06855 | 2394 ft | 185 kts | 307° |
| 2026-04-21 02:46 | 38.90548 | -77.08193 | 3029 ft | 191 kts | 304° |
| 2026-04-21 02:47 | 38.91327 | -77.09611 | 3735 ft | 197 kts | 302° |
| 2026-04-21 02:47 | 38.92110 | -77.11108 | 4363 ft | 210 kts | 306° |
| 2026-04-21 02:47 | 38.93373 | -77.12228 | 4708 ft | 242 kts | 342° |
| 2026-04-21 02:47 | 38.95116 | -77.12056 | 5322 ft | 267 kts | 19° |
| 2026-04-21 02:48 | 38.96601 | -77.10531 | 6095 ft | 283 kts | 49° |
| 2026-04-21 02:48 | 38.97656 | -77.08342 | 6885 ft | 293 kts | 61° |
| 2026-04-21 02:48 | 38.98529 | -77.05942 | 7649 ft | 299 kts | 63° |
| 2026-04-21 02:48 | 38.99389 | -77.03485 | 8455 ft | 304 kts | 63° |
| 2026-04-21 02:49 | 38.99994 | -77.00857 | 9193 ft | 312 kts | 85° |
| 2026-04-21 02:49 | 38.99765 | -76.98079 | 9929 ft | 315 kts | 111° |
| 2026-04-21 02:49 | 38.98706 | -76.95638 | 10521 ft | 317 kts | 136° |
| 2026-04-21 02:49 | 38.96948 | -76.93897 | 10710 ft | 325 kts | 162° |
| 2026-04-21 02:50 | 38.94791 | -76.92957 | 10866 ft | 342 kts | 170° |
| 2026-04-21 02:50 | 38.92464 | -76.92053 | 11299 ft | 354 kts | 169° |
| 2026-04-21 02:50 | 38.90064 | -76.91310 | 11948 ft | 356 kts | 176° |
| 2026-04-21 02:50 | 38.87616 | -76.90734 | 12663 ft | 360 kts | 177° |
| 2026-04-21 02:51 | 38.85137 | -76.90197 | 13334 ft | 364 kts | 178° |
| 2026-04-21 02:51 | 38.82617 | -76.89670 | 13955 ft | 369 kts | 178° |
| 2026-04-21 02:51 | 38.80057 | -76.89136 | 14543 ft | 375 kts | 179° |
| 2026-04-21 02:51 | 38.77477 | -76.88585 | 15166 ft | 378 kts | 179° |
| 2026-04-21 02:52 | 38.74874 | -76.88018 | 15792 ft | 381 kts | 179° |
| 2026-04-21 02:52 | 38.72250 | -76.87441 | 16406 ft | 384 kts | 179° |
| 2026-04-21 02:52 | 38.69607 | -76.86860 | 17035 ft | 387 kts | 180° |
| 2026-04-21 02:52 | 38.66951 | -76.86273 | 17769 ft | 386 kts | 180° |
| 2026-04-21 02:53 | 38.64298 | -76.85688 | 18404 ft | 389 kts | 181° |
| 2026-04-21 02:53 | 38.61616 | -76.85103 | 18969 ft | 392 kts | 181° |
| 2026-04-21 02:53 | 38.58912 | -76.84514 | 19458 ft | 396 kts | 181° |
| 2026-04-21 02:53 | 38.56185 | -76.83918 | 20021 ft | 399 kts | 181° |
| 2026-04-21 02:54 | 38.53437 | -76.83319 | 20568 ft | 402 kts | 181° |
| 2026-04-21 02:54 | 38.50670 | -76.82717 | 21087 ft | 405 kts | 181° |
| 2026-04-21 02:54 | 38.47882 | -76.82108 | 21571 ft | 407 kts | 181° |
| 2026-04-21 02:54 | 38.45079 | -76.81497 | 22044 ft | 410 kts | 182° |
| 2026-04-21 02:55 | 38.42262 | -76.80888 | 22503 ft | 413 kts | 182° |
| 2026-04-21 02:55 | 38.39419 | -76.80275 | 22951 ft | 415 kts | 182° |
| 2026-04-21 02:55 | 38.36602 | -76.79664 | 23308 ft | 418 kts | 181° |
| 2026-04-21 02:55 | 38.33732 | -76.79038 | 23759 ft | 419 kts | 181° |
| 2026-04-21 02:56 | 38.30849 | -76.78408 | 24128 ft | 422 kts | 181° |
| 2026-04-21 02:56 | 38.25043 | -76.77149 | 24842 ft | 425 kts | 181° |
| 2026-04-21 02:56 | 38.22119 | -76.76520 | 25181 ft | 427 kts | 182° |
| 2026-04-21 02:57 | 38.19186 | -76.75890 | 25528 ft | 428 kts | 182° |
| 2026-04-21 02:57 | 38.16240 | -76.75260 | 25863 ft | 430 kts | 182° |
| 2026-04-21 02:57 | 38.13280 | -76.74625 | 26144 ft | 432 kts | 181° |
| 2026-04-21 02:57 | 38.10301 | -76.73984 | 26400 ft | 437 kts | 181° |
| 2026-04-21 02:58 | 38.07293 | -76.73333 | 26691 ft | 439 kts | 181° |
| 2026-04-21 02:58 | 38.04273 | -76.72680 | 27020 ft | 442 kts | 181° |
| 2026-04-21 02:58 | 38.01239 | -76.72024 | 27340 ft | 444 kts | 181° |
| 2026-04-21 02:58 | 37.98190 | -76.71362 | 27654 ft | 446 kts | 181° |
| 2026-04-21 02:59 | 37.95128 | -76.70696 | 28030 ft | 446 kts | 181° |
| 2026-04-21 02:59 | 37.92066 | -76.70031 | 28489 ft | 445 kts | 182° |
| 2026-04-21 02:59 | 37.89019 | -76.69373 | 28901 ft | 444 kts | 182° |
| 2026-04-21 02:59 | 37.85962 | -76.68721 | 29245 ft | 446 kts | 182° |
| 2026-04-21 03:00 | 37.82897 | -76.68069 | 29641 ft | 447 kts | 182° |
| 2026-04-21 03:00 | 37.79830 | -76.67414 | 30079 ft | 446 kts | 182° |
| 2026-04-21 03:00 | 37.76771 | -76.66757 | 30479 ft | 446 kts | 182° |
| 2026-04-21 03:00 | 37.73713 | -76.66103 | 30824 ft | 446 kts | 182° |
| 2026-04-21 03:01 | 37.70652 | -76.65453 | 31161 ft | 446 kts | 181° |
| 2026-04-21 03:01 | 37.67583 | -76.64804 | 31504 ft | 447 kts | 181° |
| 2026-04-21 03:01 | 37.64519 | -76.64159 | 31844 ft | 447 kts | 181° |
| 2026-04-21 03:01 | 37.61462 | -76.63755 | 32163 ft | 438 kts | 189° |
| 2026-04-21 03:02 | 37.55510 | -76.64491 | 32265 ft | 426 kts | 204° |
| 2026-04-21 03:02 | 37.49860 | -76.66648 | 32267 ft | 425 kts | 207° |
| 2026-04-21 03:03 | 37.44232 | -76.68819 | 32263 ft | 426 kts | 206° |
| 2026-04-21 03:03 | 37.38573 | -76.70981 | 32264 ft | 425 kts | 206° |
| 2026-04-21 03:04 | 37.32919 | -76.73144 | 32261 ft | 425 kts | 206° |
| 2026-04-21 03:04 | 37.27266 | -76.75313 | 32259 ft | 425 kts | 206° |
| 2026-04-21 03:05 | 37.21610 | -76.77480 | 32246 ft | 425 kts | 206° |
| 2026-04-21 03:05 | 37.15954 | -76.79636 | 32219 ft | 425 kts | 206° |
| 2026-04-21 03:06 | 37.10299 | -76.81795 | 32238 ft | 425 kts | 206° |
| 2026-04-21 03:06 | 37.04646 | -76.83944 | 32251 ft | 425 kts | 206° |
| 2026-04-21 03:07 | 36.98997 | -76.86090 | 32256 ft | 424 kts | 206° |
| 2026-04-21 03:07 | 36.93385 | -76.88216 | 32248 ft | 424 kts | 206° |
| 2026-04-21 03:08 | 36.87733 | -76.90360 | 32251 ft | 425 kts | 206° |
| 2026-04-21 03:08 | 36.82078 | -76.92504 | 32256 ft | 425 kts | 206° |
| 2026-04-21 03:09 | 36.76419 | -76.94639 | 32267 ft | 425 kts | 206° |
| 2026-04-21 03:09 | 36.70753 | -76.96774 | 32258 ft | 426 kts | 206° |
| 2026-04-21 03:10 | 36.65085 | -76.98909 | 32267 ft | 426 kts | 206° |
| 2026-04-21 03:10 | 36.59417 | -77.01042 | 32275 ft | 426 kts | 206° |
| 2026-04-21 03:11 | 36.53752 | -77.03177 | 32285 ft | 425 kts | 206° |
| 2026-04-21 03:11 | 36.48088 | -77.05298 | 32266 ft | 425 kts | 206° |
| 2026-04-21 03:12 | 36.42418 | -77.07414 | 32277 ft | 425 kts | 206° |
| 2026-04-21 03:12 | 36.36758 | -77.09523 | 32282 ft | 425 kts | 206° |
| 2026-04-21 03:13 | 36.31098 | -77.11633 | 32282 ft | 424 kts | 206° |
| 2026-04-21 03:13 | 36.25451 | -77.13743 | 32256 ft | 423 kts | 206° |
| 2026-04-21 03:14 | 36.19812 | -77.15847 | 32273 ft | 423 kts | 206° |
| 2026-04-21 03:14 | 36.14182 | -77.17943 | 32278 ft | 422 kts | 206° |
| 2026-04-21 03:15 | 36.08552 | -77.20027 | 32279 ft | 422 kts | 206° |
| 2026-04-21 03:15 | 36.02933 | -77.22102 | 32273 ft | 421 kts | 206° |
| 2026-04-21 03:16 | 35.97351 | -77.24170 | 32301 ft | 421 kts | 207° |
| 2026-04-21 03:16 | 35.91722 | -77.26212 | 32300 ft | 424 kts | 205° |
| 2026-04-21 03:17 | 35.85936 | -77.27817 | 32300 ft | 429 kts | 201° |
| 2026-04-21 03:17 | 35.80086 | -77.29171 | 31444 ft | 427 kts | 201° |
| 2026-04-21 03:18 | 35.77166 | -77.29863 | 30658 ft | 428 kts | 201° |
| 2026-04-21 03:18 | 35.74241 | -77.30585 | 29780 ft | 429 kts | 201° |
| 2026-04-21 03:18 | 35.71318 | -77.31327 | 28941 ft | 428 kts | 201° |
| 2026-04-21 03:18 | 35.68402 | -77.32076 | 28275 ft | 424 kts | 201° |
| 2026-04-21 03:19 | 35.65533 | -77.32815 | 27633 ft | 420 kts | 201° |
| 2026-04-21 03:19 | 35.62686 | -77.33545 | 27001 ft | 416 kts | 201° |
| 2026-04-21 03:19 | 35.59864 | -77.34263 | 26386 ft | 412 kts | 200° |
| 2026-04-21 03:19 | 35.57066 | -77.34973 | 25742 ft | 409 kts | 200° |
| 2026-04-21 03:20 | 35.54295 | -77.35675 | 25196 ft | 405 kts | 200° |
| 2026-04-21 03:20 | 35.51550 | -77.36371 | 24647 ft | 401 kts | 200° |
| 2026-04-21 03:20 | 35.48870 | -77.37052 | 24105 ft | 397 kts | 200° |
| 2026-04-21 03:20 | 35.46247 | -77.37718 | 23534 ft | 394 kts | 199° |
| 2026-04-21 03:21 | 35.43512 | -77.38414 | 22647 ft | 400 kts | 199° |
| 2026-04-21 03:21 | 35.40776 | -77.39116 | 21937 ft | 402 kts | 199° |
| 2026-04-21 03:21 | 35.38061 | -77.39861 | 21369 ft | 396 kts | 204° |
| 2026-04-21 03:21 | 35.35516 | -77.41028 | 20857 ft | 385 kts | 213° |
| 2026-04-21 03:22 | 35.33183 | -77.42570 | 20358 ft | 380 kts | 216° |
| 2026-04-21 03:22 | 35.30883 | -77.44141 | 19867 ft | 378 kts | 216° |
| 2026-04-21 03:22 | 35.28592 | -77.45697 | 19384 ft | 376 kts | 216° |
| 2026-04-21 03:22 | 35.26309 | -77.47243 | 18903 ft | 373 kts | 216° |
| 2026-04-21 03:23 | 35.24046 | -77.48777 | 18388 ft | 371 kts | 216° |
| 2026-04-21 03:23 | 35.21796 | -77.50305 | 17831 ft | 369 kts | 216° |
| 2026-04-21 03:23 | 35.19562 | -77.51820 | 17280 ft | 366 kts | 216° |
| 2026-04-21 03:23 | 35.17344 | -77.53321 | 16744 ft | 363 kts | 216° |
| 2026-04-21 03:24 | 35.15143 | -77.54810 | 16189 ft | 361 kts | 216° |
| 2026-04-21 03:24 | 35.12953 | -77.56293 | 15647 ft | 358 kts | 216° |
| 2026-04-21 03:24 | 35.10784 | -77.57764 | 15105 ft | 355 kts | 216° |
| 2026-04-21 03:24 | 35.08629 | -77.59228 | 14559 ft | 354 kts | 216° |
| 2026-04-21 03:25 | 35.06482 | -77.60681 | 14012 ft | 352 kts | 215° |
| 2026-04-21 03:25 | 35.04344 | -77.62124 | 13423 ft | 350 kts | 215° |
| 2026-04-21 03:25 | 35.02214 | -77.63558 | 12853 ft | 348 kts | 215° |
| 2026-04-21 03:25 | 35.00099 | -77.64982 | 12295 ft | 346 kts | 215° |
| 2026-04-21 03:26 | 34.97995 | -77.66400 | 11758 ft | 344 kts | 215° |
| 2026-04-21 03:26 | 34.95902 | -77.67805 | 11224 ft | 343 kts | 213° |
| 2026-04-21 03:26 | 34.93681 | -77.68912 | 10701 ft | 348 kts | 201° |
| 2026-04-21 03:26 | 34.91287 | -77.69462 | 10196 ft | 353 kts | 189° |
| 2026-04-21 03:27 | 34.88836 | -77.69537 | 9823 ft | 348 kts | 185° |
| 2026-04-21 03:27 | 34.86460 | -77.69565 | 9673 ft | 335 kts | 185° |
| 2026-04-21 03:27 | 34.84201 | -77.69594 | 9536 ft | 323 kts | 185° |
| 2026-04-21 03:27 | 34.81989 | -77.69628 | 9402 ft | 312 kts | 185° |
| 2026-04-21 03:28 | 34.79850 | -77.69664 | 9264 ft | 302 kts | 185° |
| 2026-04-21 03:28 | 34.77770 | -77.69700 | 9035 ft | 297 kts | 185° |
| 2026-04-21 03:28 | 34.75714 | -77.69736 | 8719 ft | 295 kts | 185° |
| 2026-04-21 03:28 | 34.73679 | -77.69774 | 8227 ft | 292 kts | 185° |
| 2026-04-21 03:29 | 34.71644 | -77.69812 | 7882 ft | 292 kts | 184° |
| 2026-04-21 03:29 | 34.69616 | -77.69849 | 7573 ft | 290 kts | 184° |
| 2026-04-21 03:29 | 34.67608 | -77.69883 | 7200 ft | 288 kts | 184° |
| 2026-04-21 03:29 | 34.65611 | -77.69915 | 6748 ft | 286 kts | 183° |
| 2026-04-21 03:30 | 34.63624 | -77.69947 | 6285 ft | 284 kts | 182° |
| 2026-04-21 03:30 | 34.61653 | -77.69979 | 5823 ft | 282 kts | 181° |
| 2026-04-21 03:30 | 34.59694 | -77.70013 | 5342 ft | 281 kts | 181° |
| 2026-04-21 03:30 | 34.57749 | -77.70046 | 4910 ft | 279 kts | 181° |
| 2026-04-21 03:31 | 34.55818 | -77.70077 | 4457 ft | 276 kts | 181° |
| 2026-04-21 03:31 | 34.53925 | -77.70108 | 4181 ft | 268 kts | 181° |
| 2026-04-21 03:31 | 34.52082 | -77.70140 | 3820 ft | 263 kts | 181° |
| 2026-04-21 03:31 | 34.50259 | -77.70171 | 3417 ft | 260 kts | 180° |
| 2026-04-21 03:32 | 34.48536 | -77.70199 | 3280 ft | 234 kts | 180° |
| 2026-04-21 03:32 | 34.46972 | -77.70225 | 2972 ft | 219 kts | 180° |
| 2026-04-21 03:32 | 34.45461 | -77.70254 | 2478 ft | 215 kts | 180° |
| 2026-04-21 03:32 | 34.43975 | -77.70280 | 2029 ft | 211 kts | 180° |
| 2026-04-21 03:33 | 34.42506 | -77.70377 | 1974 ft | 212 kts | 192° |
| 2026-04-21 03:33 | 34.41136 | -77.71015 | 1976 ft | 212 kts | 214° |
| 2026-04-21 03:33 | 34.40045 | -77.72197 | 1984 ft | 211 kts | 230° |
| 2026-04-21 03:33 | 34.39070 | -77.73527 | 1974 ft | 206 kts | 230° |
| 2026-04-21 03:34 | 34.38453 | -77.74369 | 1969 ft | 199 kts | 230° |
| 2026-04-21 03:34 | 34.37543 | -77.75609 | 1972 ft | 195 kts | 230° |
| 2026-04-21 03:34 | 34.36659 | -77.76813 | 2013 ft | 188 kts | 230° |
| 2026-04-21 03:34 | 34.35801 | -77.77979 | 1977 ft | 184 kts | 230° |
| 2026-04-21 03:35 | 34.34952 | -77.79135 | 1967 ft | 183 kts | 230° |
| 2026-04-21 03:35 | 34.34147 | -77.80228 | 1878 ft | 166 kts | 230° |
| 2026-04-21 03:35 | 34.33404 | -77.81237 | 1730 ft | 158 kts | 230° |
| 2026-04-21 03:35 | 34.32681 | -77.82220 | 1518 ft | 155 kts | 230° |
| 2026-04-21 03:36 | 34.31965 | -77.83192 | 1315 ft | 154 kts | 230° |
| 2026-04-21 03:36 | 34.31254 | -77.84158 | 1104 ft | 154 kts | 231° |
| 2026-04-21 03:36 | 34.30543 | -77.85121 | 911 ft | 153 kts | 230° |
| 2026-04-21 03:36 | 34.29852 | -77.86089 | 693 ft | 152 kts | 230° |
| 2026-04-21 03:37 | 34.29142 | -77.87035 | 481 ft | 153 kts | 229° |
| 2026-04-21 03:37 | 34.28432 | -77.87987 | 283 ft | 152 kts | 229° |
| 2026-04-21 03:37 | 34.27739 | -77.88932 | 113 ft | 150 kts | 228° |
| 2026-04-21 03:37 | 34.27047 | -77.89867 | 41 ft | 149 kts | 229° |
| 2026-04-21 03:38 | 34.26615 | -77.90451 | 40 ft | 48 kts | 229° |
| 2026-04-21 03:38 | 34.26400 | -77.90743 | 41 ft | 45 kts | 228° |
| 2026-04-21 03:38 | 34.26249 | -77.90943 | 39 ft | 19 kts | 229° |
| 2026-04-21 03:38 | 34.26272 | -77.91080 | 40 ft | 19 kts | 322° |
| 2026-04-21 03:39 | 34.26372 | -77.91082 | 41 ft | 17 kts | 42° |
| 2026-04-21 03:39 | 34.26460 | -77.90970 | 40 ft | 20 kts | 47° |
| 2026-04-21 03:39 | 34.26540 | -77.90925 | 41 ft | 12 kts | 11° |
| 2026-04-21 03:39 | 34.26603 | -77.90909 | 41 ft | 0 kts | 11° |